Aviation Digital Data Service (ADDS)

Output produced by METARs form (1243 UTC 15 November 2018)
found at http://www.aviationweather.gov/metar/data/
 
WSAP 151200Z 30003KT 9999 FEW015 SCT160 27/25 Q1010
TAF WSAP 151100Z 1512/1618 17007KT 9999 FEW018CB SCT020 
     TEMPO 1601/1605 20015G25KT 3000 TSRA FEW012CB BKN015
       
WSSL 151200Z VRB02KT 9999 FEW016 BKN150 26/24 Q1010
TAF WSSL 151100Z 1512/1618 17007KT 9999 FEW018CB SCT020 
     TEMPO 1601/1605 20015G25KT 3000 TSRA FEW012CB BKN015
       
WSSS 151230Z VRB02KT 9999 FEW015 BKN190 26/24 Q1011 NOSIG
TAF WSSS 151100Z 1512/1618 17007KT 9999 FEW018CB SCT020 
     TEMPO 1601/1605 20015G25KT 3000 TSRA FEW012CB BKN015